Forks, Washington
Current Conditions -  °F | °C
As of 6:53 PM on Monday 20 Oct 2014 (Local Time) from KUIL Reporting Station
Haze Haze  
Wind Chill: 56°   Ceiling: 1900
Heat Index: 56°   Visibility: 5mi
Dew Point: 55°   Wind: 0mph
Humidity: 97%   Direction: NA
Pressure: 29.71"   Gusts: NA
Location:  47.95°N, 124.39°W
Report Text: KUIL 210153Z AUTO 00000KT 5SM BR FEW006 OVC019 13/13 A2971 RMK AO2 RAE15B26E45 SLP060 P0003 T01330128
Loading
Personal Weather Stations






























Interactive Weather Map
Tropical Storm Tracking
New forecast layout! Learn more

10-Day Weather Forecast

Advertisements
Track Severe Weather on mobile